Time;durP1;ratioP1;P1;durP2;ratioP2;P2;SDS_P1;SDS_P2;PMS_P1;PMS_P2;Temp;Humidity;BMP_temperature;BMP_pressure;BME280_temperature;BME280_humidity;BME280_pressure;Samples;Min_cycle;Max_cycle;Signal;HPM_P1;HPM_P2
2023/03/22 00:00:05;;;;;;;0.40;0.40;;;18.50;60.20;;;18.35;43.86;94711.91;5077858;28;20609;-30
2023/03/22 00:02:33;;;;;;;0.50;0.50;;;18.50;60.20;;;18.34;43.98;94716.41;5093966;28;20191;-30
2023/03/22 00:05:00;;;;;;;0.50;0.50;;;18.50;60.20;;;18.32;44.32;94707.91;5094459;28;20245;-30
2023/03/22 00:07:27;;;;;;;0.50;0.50;;;18.50;60.30;;;18.32;44.07;94715.03;5078166;28;20260;-30
2023/03/22 00:09:54;;;;;;;0.50;0.50;;;18.50;60.20;;;18.32;44.25;94712.38;5093767;28;20222;-30
2023/03/22 00:12:21;;;;;;;0.47;0.47;;;18.40;60.20;;;18.31;43.76;94711.59;5077646;28;20260;-30
2023/03/22 00:14:49;;;;;;;0.50;0.50;;;18.40;60.20;;;18.31;44.22;94710.78;5076960;28;20191;-30
2023/03/22 00:17:16;;;;;;;0.47;0.47;;;18.40;60.20;;;18.30;44.33;94709.19;5077695;28;20577;-29
2023/03/22 00:19:43;;;;;;;0.60;0.60;;;18.40;60.30;;;18.30;43.84;94710.00;5093352;28;20644;-30
2023/03/22 00:22:13;;;;;;;0.40;0.40;;;18.40;60.20;;;18.30;43.86;94711.84;5077465;28;20209;-30
2023/03/22 00:24:40;;;;;;;0.50;0.50;;;18.40;60.20;;;18.28;43.84;94714.72;5077442;28;20649;-30
2023/03/22 00:27:07;;;;;;;0.50;0.50;;;18.40;60.20;;;18.27;44.33;94709.66;5093160;28;20251;-30
2023/03/22 00:29:35;;;;;;;0.50;0.50;;;18.40;60.20;;;18.26;44.42;94706.22;5077251;28;20242;-30
2023/03/22 00:32:03;;;;;;;0.50;0.50;;;18.40;60.30;;;18.27;44.37;94704.38;5093235;28;20230;-29
2023/03/22 00:34:32;;;;;;;0.40;0.40;;;18.40;60.30;;;18.26;44.31;94700.09;5093228;28;20286;-30
2023/03/22 00:36:59;;;;;;;0.50;0.50;;;18.40;60.30;;;18.26;43.87;94705.41;5076433;28;20207;-30
2023/03/22 00:39:26;;;;;;;0.40;0.40;;;18.40;60.30;;;18.25;44.13;94707.28;5076812;28;20186;-31
2023/03/22 00:41:54;;;;;;;0.50;0.50;;;18.40;60.40;;;18.23;44.35;94701.41;5077132;28;20277;-30
2023/03/22 00:44:21;;;;;;;0.40;0.40;;;18.40;60.30;;;18.22;43.89;94702.44;5076234;28;20240;-30
2023/03/22 00:46:48;;;;;;;0.40;0.40;;;18.30;60.30;;;18.21;44.41;94706.97;5076256;28;20259;-30
2023/03/22 00:49:15;;;;;;;0.50;0.50;;;18.30;60.30;;;18.22;44.52;94702.44;5075914;28;20276;-30
2023/03/22 00:51:43;;;;;;;0.40;0.40;;;18.30;60.30;;;18.21;43.92;94693.69;5077729;28;20194;-30
2023/03/22 00:54:10;;;;;;;0.55;0.55;;;18.30;60.30;;;18.20;44.47;94697.38;5059600;28;20198;-29
2023/03/22 00:56:38;;;;;;;0.50;0.50;;;18.30;60.30;;;18.19;44.18;94689.66;5075923;28;20195;-29
2023/03/22 00:59:12;;;;;;;0.40;0.40;;;18.30;60.30;;;18.19;44.37;94693.13;5060234;28;20203;-30
2023/03/22 01:01:42;;;;;;;0.50;0.50;;;18.30;60.30;;;18.19;44.38;94690.47;5075780;28;20202;-30
2023/03/22 01:04:14;;;;;;;0.40;0.40;;;18.30;60.30;;;18.17;44.38;94681.94;5092748;28;20273;-30
2023/03/22 01:06:41;;;;;;;0.50;0.50;;;18.30;61.30;;;18.16;44.31;94684.84;5092417;28;20194;-30
2023/03/22 01:09:13;;;;;;;0.40;0.40;;;18.30;60.40;;;18.16;44.53;94688.31;5076714;28;20242;-31
2023/03/22 01:11:42;;;;;;;0.40;0.40;;;18.30;60.50;;;18.15;44.07;94683.22;5059530;28;20191;-30
2023/03/22 01:14:12;;;;;;;0.50;0.50;;;18.30;60.40;;;18.13;44.19;94688.78;5075884;28;20602;-30
2023/03/22 01:16:39;;;;;;;0.45;0.45;;;18.30;60.50;;;18.14;44.46;94687.75;5076287;28;20548;-30
2023/03/22 01:19:08;;;;;;;0.40;0.40;;;18.30;60.40;;;18.13;44.21;94688.78;5092496;28;20203;-29
2023/03/22 01:21:35;;;;;;;0.47;0.47;;;18.20;60.40;;;18.14;44.32;94682.44;5092495;28;20626;-30
2023/03/22 01:24:03;;;;;;;0.50;0.50;;;18.20;60.50;;;18.13;44.08;94685.34;5075526;28;20634;-30
2023/03/22 01:26:30;;;;;;;0.45;0.45;;;18.20;60.40;;;18.12;44.28;94678.41;5075087;28;20219;-31
2023/03/22 01:28:58;;;;;;;0.50;0.50;;;18.20;60.50;;;18.12;44.62;94683.72;5075127;28;20230;-30
2023/03/22 01:31:26;;;;;;;0.50;0.50;;;18.20;60.40;;;18.11;44.06;94677.59;5076373;28;20207;-30
2023/03/22 01:33:53;;;;;;;0.50;0.50;;;18.20;60.50;;;18.11;44.67;94672.28;5075321;28;20199;-30
2023/03/22 01:36:22;;;;;;;0.50;0.50;;;18.20;60.50;;;18.11;44.40;94669.63;5091408;28;20243;-30
2023/03/22 01:38:49;;;;;;;0.50;0.50;;;18.20;60.50;;;18.09;44.29;94674.41;5091856;28;20282;-30
2023/03/22 01:41:17;;;;;;;0.50;0.50;;;18.20;60.50;;;18.09;44.77;94669.09;5092058;28;20282;-30
2023/03/22 01:44:18;;;;;;;0.50;0.50;;;18.20;60.50;;;18.07;44.66;94666.66;5074960;28;20194;-30
2023/03/22 01:46:49;;;;;;;0.50;0.50;;;18.20;60.50;;;18.05;44.16;94666.13;5075027;28;20190;-29
2023/03/22 01:49:26;;;;;;;0.50;0.50;;;18.20;60.50;;;18.05;44.70;94660.00;5091747;28;20658;-29
2023/03/22 01:51:59;;;;;;;0.50;0.50;;;18.20;60.60;;;18.03;44.51;94662.91;5074927;28;20610;-30
2023/03/22 01:54:49;;;;;;;0.50;0.50;;;18.20;60.60;;;18.03;44.33;94662.91;5060877;28;20538;-30
2023/03/22 01:57:36;;;;;;;0.40;0.40;;;18.20;60.60;;;18.01;44.25;94654.38;5045888;28;20252;-30
2023/03/22 02:00:12;;;;;;;0.60;0.60;;;18.20;60.60;;;18.01;44.42;94649.06;5075472;28;20202;-29
2023/03/22 02:02:48;;;;;;;0.50;0.50;;;18.10;60.50;;;18.01;44.63;94650.94;5059012;28;20194;-30
2023/03/22 02:05:24;;;;;;;0.50;0.50;;;18.10;60.50;;;18.00;44.43;94657.28;5074991;28;20703;-30
2023/03/22 02:07:55;;;;;;;0.60;0.60;;;18.10;60.50;;;18.00;44.42;94646.66;5058992;28;20202;-30
2023/03/22 02:10:26;;;;;;;0.50;0.50;;;18.10;60.60;;;17.98;44.89;94652.22;5058031;28;20317;-30
2023/03/22 02:13:37;;;;;;;0.45;0.45;;;18.10;60.60;;;17.98;44.31;94651.41;5090887;28;20205;-30
2023/03/22 02:16:54;;;;;;;0.50;0.50;;;18.10;60.60;;;17.95;44.53;94652.72;5078078;28;20191;-30
2023/03/22 02:20:11;;;;;;;0.50;0.50;;;18.10;61.40;;;17.94;44.69;94653.72;5060035;28;20593;-30
2023/03/22 02:23:06;;;;;;;0.52;0.52;;;18.10;60.50;;;17.91;44.29;94648.91;5058112;28;20629;-29
2023/03/22 02:25:45;;;;;;;0.50;0.50;;;18.10;60.60;;;17.90;44.73;94657.91;5090971;28;20206;-29
2023/03/22 02:28:26;;;;;;;0.43;0.43;;;18.10;60.70;;;17.88;44.67;94650.22;5075598;28;20218;-30
2023/03/22 02:31:27;;;;;;;0.50;0.50;;;18.00;60.60;;;17.88;44.50;94652.88;5074406;28;20225;-32
2023/03/22 02:34:52;;;;;;;0.50;0.50;;;18.00;60.50;;;17.86;44.83;94654.94;5074026;28;20222;-30
2023/03/22 02:37:46;;;;;;;0.50;0.50;;;18.00;60.60;;;17.83;44.47;94647.47;5074312;28;20285;-29
2023/03/22 02:40:23;;;;;;;0.50;0.50;;;18.00;60.60;;;17.83;44.88;94650.13;5074433;28;20612;-30
2023/03/22 02:43:10;;;;;;;0.40;0.40;;;18.00;60.70;;;17.84;44.62;94640.31;5091119;28;20191;-30
2023/03/22 02:45:51;;;;;;;0.50;0.50;;;18.00;60.70;;;17.81;44.98;94636.31;5090729;28;20592;-30
2023/03/22 02:48:39;;;;;;;0.50;0.50;;;18.00;60.80;;;17.82;44.63;94645.06;5073994;28;20634;-30
2023/03/22 02:51:31;;;;;;;0.50;0.50;;;18.00;60.80;;;17.82;44.56;94653.84;5057349;28;20210;-30
2023/03/22 02:54:20;;;;;;;0.50;0.50;;;17.90;60.70;;;17.80;44.56;94647.97;5058115;28;20203;-30
2023/03/22 02:56:59;;;;;;;0.50;0.50;;;17.90;60.70;;;17.82;44.69;94655.69;5074057;28;20630;-30
2023/03/22 02:59:30;;;;;;;0.50;0.50;;;17.90;60.70;;;17.81;44.81;94654.88;5074026;28;20269;-30
2023/03/22 03:02:01;;;;;;;0.47;0.47;;;17.90;60.80;;;17.75;44.57;94650.56;5077660;28;20277;-30
2023/03/22 03:04:35;;;;;;;0.52;0.52;;;17.90;60.80;;;17.81;44.91;94662.84;5061599;28;20183;-30
2023/03/22 03:07:08;;;;;;;0.50;0.50;;;17.90;60.80;;;17.83;44.56;94667.91;5078355;28;20182;-30
2023/03/22 03:09:38;;;;;;;0.52;0.52;;;17.90;60.80;;;17.81;45.04;94656.72;5061663;28;20665;-30
2023/03/22 03:12:25;;;;;;;0.50;0.50;;;17.90;60.80;;;17.80;44.64;94666.53;5061498;28;20197;-29
2023/03/22 03:14:54;;;;;;;0.50;0.50;;;17.90;60.70;;;17.82;44.92;94666.28;5078111;28;20281;-30
2023/03/22 03:17:52;;;;;;;0.47;0.47;;;17.90;60.80;;;17.81;44.76;94672.63;5077974;28;20203;-30
2023/03/22 03:20:59;;;;;;;0.50;0.50;;;17.90;60.90;;;17.77;44.78;94669.66;5077710;28;20190;-29
2023/03/22 03:24:08;;;;;;;0.40;0.40;;;17.90;60.80;;;17.77;45.05;94667.00;5061582;28;20202;-29
2023/03/22 03:27:05;;;;;;;0.50;0.50;;;17.90;60.90;;;17.74;45.11;94662.22;5061973;28;20178;-29
2023/03/22 03:29:45;;;;;;;0.50;0.50;;;17.90;60.70;;;17.74;44.56;94664.84;5061013;28;20234;-30
2023/03/22 03:32:42;;;;;;;0.50;0.50;;;17.90;60.90;;;17.72;44.79;94662.47;5077492;28;20244;-30
2023/03/22 03:35:26;;;;;;;0.50;0.50;;;17.80;60.70;;;17.72;44.73;94661.63;5078231;28;20175;-30
2023/03/22 03:38:02;;;;;;;0.40;0.40;;;17.90;60.90;;;17.73;44.75;94665.91;5094277;28;20213;-31
2023/03/22 03:40:39;;;;;;;0.50;0.50;;;17.80;60.90;;;17.72;44.76;94658.97;5060967;28;20191;-30
2023/03/22 03:43:08;;;;;;;0.40;0.40;;;17.80;60.90;;;17.73;45.02;94660.59;5077909;28;20178;-30
2023/03/22 03:45:37;;;;;;;0.50;0.50;;;17.80;60.90;;;17.72;44.64;94659.81;5077280;28;20626;-29
2023/03/22 03:48:12;;;;;;;0.50;0.50;;;17.80;61.00;;;17.72;44.89;94664.28;5094274;28;20195;-31
2023/03/22 03:50:41;;;;;;;0.50;0.50;;;17.80;61.00;;;17.73;44.51;94663.25;5077340;28;20202;-30
2023/03/22 03:53:10;;;;;;;0.50;0.50;;;17.80;60.90;;;17.73;44.71;94664.03;5077922;28;20179;-30
2023/03/22 03:55:37;;;;;;;0.50;0.50;;;17.80;60.90;;;17.73;44.68;94658.72;5076851;28;20245;-30
2023/03/22 03:58:04;;;;;;;0.40;0.40;;;17.80;61.00;;;17.74;44.71;94664.84;5078219;28;20328;-30
2023/03/22 04:00:31;;;;;;;0.40;0.40;;;17.80;61.00;;;17.72;45.07;94664.28;5093815;28;20259;-32
2023/03/22 04:03:22;;;;;;;0.52;0.52;;;17.80;61.00;;;17.72;44.78;94667.75;5077940;28;20688;-33
2023/03/22 04:06:09;;;;;;;0.50;0.50;;;17.80;61.10;;;17.72;44.59;94661.63;5078141;28;20220;-30
2023/03/22 04:08:40;;;;;;;0.50;0.50;;;17.80;61.00;;;17.71;45.03;94660.84;5061055;28;20290;-30
2023/03/22 04:11:08;;;;;;;0.50;0.50;;;17.80;61.00;;;17.71;44.60;94652.06;5093891;28;20223;-34
2023/03/22 04:13:35;;;;;;;0.35;0.35;;;17.80;61.00;;;17.70;45.24;94651.28;5043870;28;20190;-30
2023/03/22 04:16:07;;;;;;;0.50;0.50;;;17.80;61.10;;;17.69;45.13;94654.97;5077035;28;20503;-35
2023/03/22 04:18:37;;;;;;;0.50;0.50;;;17.80;61.00;;;17.70;45.12;94653.94;5093536;28;20230;-31
2023/03/22 04:21:07;;;;;;;0.40;0.40;;;17.80;61.00;;;17.69;44.59;94660.28;5093125;28;20202;-39
2023/03/22 04:23:47;;;;;;;0.47;0.47;;;17.80;61.10;;;17.69;45.19;94665.59;5093526;28;20206;-32
2023/03/22 04:26:15;;;;;;;0.50;0.50;;;17.80;62.00;;;17.68;44.95;94666.63;5076374;28;20218;-30
2023/03/22 04:29:01;;;;;;;0.40;0.40;;;17.80;61.10;;;17.68;45.15;94657.88;5093561;28;20231;-30
2023/03/22 04:31:32;;;;;;;0.40;0.40;;;17.80;61.10;;;17.68;44.87;94660.53;5059880;28;20680;-30
2023/03/22 04:34:06;;;;;;;0.50;0.50;;;17.80;61.10;;;17.66;44.82;94663.41;5060919;28;20218;-30
2023/03/22 04:36:48;;;;;;;0.50;0.50;;;17.80;61.10;;;17.66;45.12;94658.09;5093209;28;20205;-29
2023/03/22 04:39:24;;;;;;;0.40;0.40;;;17.80;61.10;;;17.66;45.23;94667.91;5077044;28;20245;-29
2023/03/22 04:42:04;;;;;;;0.50;0.50;;;17.80;61.10;;;17.66;44.80;94675.88;5093328;28;20286;-30
2023/03/22 04:44:32;;;;;;;0.43;0.43;;;17.80;61.10;;;17.66;45.22;94681.16;5076202;28;20258;-29
2023/03/22 04:47:00;;;;;;;0.50;0.50;;;17.80;61.20;;;17.65;44.85;94680.38;5076088;28;20190;-30
2023/03/22 04:49:27;;;;;;;0.50;0.50;;;17.80;61.30;;;17.64;44.86;94678.78;5076020;28;20195;-30
2023/03/22 04:51:55;;;;;;;0.45;0.45;;;17.80;61.20;;;17.65;44.78;94682.22;5075980;28;20599;-30
2023/03/22 04:54:31;;;;;;;0.50;0.50;;;17.80;61.30;;;17.64;44.92;94681.41;5075828;28;20198;-30
2023/03/22 04:56:59;;;;;;;0.40;0.40;;;17.80;61.20;;;17.64;45.10;94683.25;5075907;28;20638;-30
2023/03/22 04:59:30;;;;;;;0.60;0.60;;;17.70;61.10;;;17.63;45.44;94690.41;5060104;28;20230;-30
2023/03/22 05:01:58;;;;;;;0.50;0.50;;;17.70;61.20;;;17.64;45.32;94684.06;5075773;28;20201;-30
2023/03/22 05:04:31;;;;;;;0.50;0.50;;;17.70;61.20;;;17.63;44.96;94687.78;5060005;28;20183;-30
2023/03/22 05:07:05;;;;;;;0.50;0.50;;;17.70;61.30;;;17.62;44.96;94688.81;5093114;28;20214;-30
2023/03/22 05:09:42;;;;;;;0.47;0.47;;;17.70;61.20;;;17.62;45.12;94688.03;5075530;28;20539;-30
2023/03/22 05:12:13;;;;;;;0.40;0.40;;;17.80;61.40;;;17.62;45.15;94688.03;5075877;28;20207;-30
2023/03/22 05:14:47;;;;;;;0.40;0.40;;;17.70;61.30;;;17.60;45.24;94685.59;5092739;28;20196;-29
2023/03/22 05:17:20;;;;;;;0.50;0.50;;;17.70;61.30;;;17.60;45.33;94683.75;5076349;28;20277;-30
2023/03/22 05:19:51;;;;;;;0.60;0.60;;;17.70;61.30;;;17.60;45.36;94690.88;5043479;28;20529;-29
2023/03/22 05:22:21;;;;;;;0.60;0.60;;;17.70;61.30;;;17.60;45.15;94691.72;5075378;28;20653;-29
2023/03/22 05:24:50;;;;;;;0.40;0.40;;;17.70;61.30;;;17.59;45.22;94690.09;5074694;28;20339;-29
2023/03/22 05:27:29;;;;;;;0.50;0.50;;;17.70;61.40;;;17.58;45.19;94691.13;5075301;28;20256;-31
2023/03/22 05:30:16;;;;;;;0.43;0.43;;;17.70;61.40;;;17.59;44.93;94694.59;5076181;28;20546;-29
2023/03/22 05:32:58;;;;;;;0.47;0.47;;;17.70;61.40;;;17.58;45.47;94687.69;5077104;28;20215;-30
2023/03/22 05:35:26;;;;;;;0.40;0.40;;;17.70;61.40;;;17.58;45.42;94691.13;5092016;28;20190;-29
2023/03/22 05:37:56;;;;;;;0.50;0.50;;;17.70;61.60;;;17.58;45.33;94690.34;5075077;28;20195;-30
2023/03/22 05:40:26;;;;;;;0.45;0.45;;;17.70;61.50;;;17.58;45.36;94687.69;5075930;28;20191;-30
2023/03/22 05:42:54;;;;;;;0.55;0.55;;;17.70;61.60;;;17.59;45.13;94694.59;5092696;28;20203;-30
2023/03/22 05:45:25;;;;;;;0.60;0.60;;;17.70;61.50;;;17.59;44.92;94694.59;5058724;28;20649;-31
2023/03/22 05:48:31;;;;;;;0.50;0.50;;;17.70;61.50;;;17.56;45.12;94703.03;5074834;28;20178;-29
2023/03/22 05:50:59;;;;;;;0.50;0.50;;;17.60;61.50;;;17.56;45.14;94695.88;5057375;28;20268;-29
2023/03/22 05:53:30;;;;;;;0.50;0.50;;;17.70;61.70;;;17.57;45.10;94699.34;5064733;28;20214;-30
2023/03/22 05:56:08;;;;;;;0.50;0.50;;;17.70;61.70;;;17.57;45.25;94699.34;5091750;28;20206;-30
2023/03/22 05:58:38;;;;;;;0.50;0.50;;;17.70;61.70;;;17.57;45.40;94700.13;5092527;28;20201;-29
2023/03/22 06:01:11;;;;;;;0.47;0.47;;;17.70;61.70;;;17.56;45.01;94695.88;5075192;28;20580;-30
2023/03/22 06:03:45;;;;;;;0.50;0.50;;;17.70;61.70;;;17.57;45.11;94702.00;5075700;28;20213;-30
2023/03/22 06:06:20;;;;;;;0.55;0.55;;;17.70;61.70;;;17.56;45.05;94703.81;5059160;28;20202;-29
2023/03/22 06:09:03;;;;;;;0.50;0.50;;;17.70;61.70;;;17.56;45.16;94692.44;5091474;28;20201;-31
2023/03/22 06:11:44;;;;;;;0.50;0.50;;;17.70;61.70;;;17.57;45.40;94692.19;5074738;28;20267;-31
2023/03/22 06:14:14;;;;;;;0.50;0.50;;;17.70;61.70;;;17.56;45.31;94682.59;5058684;28;20183;-29
2023/03/22 06:16:55;;;;;;;0.50;0.50;;;17.70;61.70;;;17.58;45.31;94690.34;5092365;28;20216;-30
2023/03/22 06:19:24;;;;;;;0.50;0.50;;;17.60;61.60;;;17.57;45.37;94688.72;5074710;28;20193;-30
2023/03/22 06:21:55;;;;;;;0.40;0.40;;;17.70;61.70;;;17.58;45.18;94682.38;5091170;28;20228;-30
2023/03/22 06:24:25;;;;;;;0.50;0.50;;;17.70;61.70;;;17.59;45.23;94684.00;5074729;28;20596;-30
2023/03/22 06:26:52;;;;;;;0.50;0.50;;;17.70;61.70;;;17.58;45.20;94683.19;5074458;28;20194;-29
2023/03/22 06:29:20;;;;;;;0.52;0.52;;;17.70;61.70;;;17.61;45.45;94689.84;5090920;28;20766;-30
2023/03/22 06:31:49;;;;;;;0.50;0.50;;;17.70;61.70;;;17.60;45.50;94682.94;5074108;28;20218;-29
2023/03/22 06:34:17;;;;;;;0.50;0.50;;;17.70;61.70;;;17.61;45.57;94689.84;5057626;28;20233;-30
2023/03/22 06:36:46;;;;;;;0.50;0.50;;;17.70;61.70;;;17.62;45.57;94695.97;5090172;28;20214;-29
2023/03/22 06:39:28;;;;;;;0.40;0.40;;;17.70;61.70;;;17.63;45.62;94702.88;5090982;28;20198;-30
2023/03/22 06:42:00;;;;;;;0.55;0.55;;;17.70;61.70;;;17.62;45.40;94699.41;5074721;28;20206;-30
2023/03/22 06:44:27;;;;;;;0.50;0.50;;;17.70;61.70;;;17.63;45.42;94700.25;5075200;28;20191;-38
2023/03/22 06:47:12;;;;;;;0.40;0.40;;;17.70;61.70;;;17.63;45.61;94698.38;5074568;28;20191;-37
2023/03/22 06:50:15;;;;;;;0.50;0.50;;;17.70;61.70;;;17.63;45.37;94706.34;5041672;28;20293;-38
2023/03/22 06:53:08;;;;;;;0.50;0.50;;;17.70;61.70;;;17.63;45.26;94711.63;5073072;28;20543;-36
2023/03/22 06:55:35;;;;;;;0.40;0.40;;;17.70;61.70;;;17.64;45.31;94702.63;5090892;28;20759;-34
2023/03/22 06:58:11;;;;;;;0.40;0.40;;;17.70;61.70;;;17.67;45.42;94706.66;5075530;28;20174;-37
2023/03/22 07:00:38;;;;;;;0.40;0.40;;;17.70;61.70;;;17.66;45.34;94705.84;5090923;28;20203;-39
2023/03/22 07:03:07;;;;;;;0.43;0.43;;;17.80;61.70;;;17.68;45.94;94710.91;5090979;28;20256;-38
2023/03/22 07:06:06;;;;;;;0.40;0.40;;;17.80;61.80;;;17.68;45.50;94703.75;5087826;28;20210;-37
2023/03/22 07:08:37;;;;;;;0.40;0.40;;;17.80;61.80;;;17.71;45.82;94710.41;5074549;28;20186;-35
2023/03/22 07:11:06;;;;;;;0.50;0.50;;;17.80;61.80;;;17.71;45.76;94705.13;5090614;28;20568;-37
2023/03/22 07:13:33;;;;;;;0.45;0.45;;;17.70;61.70;;;17.71;45.75;94703.28;5090491;28;20199;-37
2023/03/22 07:16:08;;;;;;;0.55;0.55;;;17.80;61.70;;;17.73;45.86;94706.47;5075134;28;20262;-35
2023/03/22 07:18:43;;;;;;;0.50;0.50;;;17.80;61.70;;;17.75;45.70;94698.31;5090914;28;20277;-38
2023/03/22 07:21:10;;;;;;;0.40;0.40;;;17.80;61.80;;;17.77;46.18;94699.66;5074735;28;20748;-36
2023/03/22 07:23:40;;;;;;;0.57;0.57;;;17.80;61.80;;;17.78;45.69;94695.16;5074549;28;20195;-34
2023/03/22 07:26:12;;;;;;;0.50;0.50;;;17.80;61.80;;;17.79;46.00;94699.41;5041588;28;20256;-38
2023/03/22 07:28:43;;;;;;;0.50;0.50;;;17.80;61.70;;;17.80;45.75;94693.06;5073504;28;20238;-37
2023/03/22 07:31:14;;;;;;;0.50;0.50;;;17.90;61.80;;;17.83;45.59;94691.78;5074338;28;20218;-35
2023/03/22 07:34:00;;;;;;;0.50;0.50;;;17.90;61.80;;;17.84;45.45;94691.53;5073966;28;20191;-38
2023/03/22 07:36:31;;;;;;;0.40;0.40;;;17.90;61.80;;;17.86;45.72;94694.75;5057851;28;20187;-38
2023/03/22 07:38:58;;;;;;;0.43;0.43;;;17.90;61.80;;;17.88;45.48;94691.84;5057042;28;20512;-34
2023/03/22 07:41:30;;;;;;;0.40;0.40;;;17.90;61.90;;;17.87;46.06;94680.44;5057664;28;20622;-39
2023/03/22 07:44:16;;;;;;;0.50;0.50;;;17.90;61.80;;;17.90;45.92;94684.44;5074769;28;20190;-37
2023/03/22 07:46:57;;;;;;;0.40;0.40;;;17.90;61.80;;;17.91;45.52;94691.38;5091531;28;20199;-39
2023/03/22 07:49:31;;;;;;;0.50;0.50;;;18.00;61.90;;;17.92;45.66;94687.69;5094975;28;20199;-36
2023/03/22 07:51:59;;;;;;;0.50;0.50;;;18.00;61.90;;;17.93;46.06;94691.91;5093917;28;20238;-37
2023/03/22 07:54:26;;;;;;;0.50;0.50;;;18.00;61.90;;;17.94;45.91;94688.22;5094160;28;20198;-36
2023/03/22 07:57:02;;;;;;;0.40;0.40;;;18.00;61.90;;;17.98;46.07;94696.53;5078477;28;20687;-37
2023/03/22 07:59:31;;;;;;;0.60;0.60;;;18.00;61.90;;;17.99;46.04;94698.13;5076982;28;20202;-34
2023/03/22 08:02:00;;;;;;;0.50;0.50;;;18.00;61.90;;;18.01;46.06;94699.50;5076895;28;20256;-37
2023/03/22 08:04:34;;;;;;;0.52;0.52;;;18.10;62.00;;;18.03;45.71;94697.41;5077049;28;20205;-37
2023/03/22 08:07:08;;;;;;;0.50;0.50;;;18.10;62.00;;;18.05;46.09;94703.28;5094183;28;20564;-36
2023/03/22 08:09:37;;;;;;;0.57;0.57;;;18.10;62.00;;;18.07;45.98;94695.06;5077756;28;20209;-38
2023/03/22 08:12:05;;;;;;;0.52;0.52;;;18.10;62.00;;;18.08;46.14;94696.69;5093577;28;20219;-35
2023/03/22 08:14:34;;;;;;;0.50;0.50;;;18.10;62.00;;;18.11;45.66;94704.16;5093665;28;20195;-38
2023/03/22 08:17:07;;;;;;;0.57;0.57;;;18.20;62.10;;;18.13;46.19;94702.06;5093967;28;20627;-36
2023/03/22 08:19:34;;;;;;;0.60;0.60;;;18.20;62.10;;;18.14;45.97;94700.19;5077145;28;20544;-39
2023/03/22 08:22:02;;;;;;;0.50;0.50;;;18.20;62.10;;;18.16;46.26;94701.59;5093378;28;20198;-37
2023/03/22 08:24:53;;;;;;;0.50;0.50;;;18.20;62.10;;;18.17;45.72;94700.50;5074620;28;20207;-38
2023/03/22 08:27:26;;;;;;;0.57;0.57;;;18.20;62.10;;;18.19;46.26;94700.28;5093691;28;20260;-37
2023/03/22 08:29:55;;;;;;;0.50;0.50;;;18.20;62.10;;;18.20;45.83;94707.19;5060305;28;20677;-38
2023/03/22 08:32:22;;;;;;;0.47;0.47;;;18.20;62.10;;;18.21;45.85;94704.31;5076119;28;20272;-37
2023/03/22 08:34:51;;;;;;;0.50;0.50;;;18.20;62.10;;;18.23;46.10;94704.03;5076387;28;20601;-36
2023/03/22 08:37:19;;;;;;;0.40;0.40;;;18.30;62.10;;;18.24;45.67;94709.09;5060403;28;20190;-36
2023/03/22 08:39:46;;;;;;;0.40;0.40;;;18.30;62.20;;;18.26;46.01;94708.88;5076663;28;20583;-37
2023/03/22 08:42:35;;;;;;;0.50;0.50;;;18.30;62.10;;;18.28;45.79;94703.31;5069879;28;20217;-38
2023/03/22 08:45:03;;;;;;;0.50;0.50;;;18.30;62.10;;;18.28;46.20;94708.63;5043861;28;20206;-38
2023/03/22 08:47:32;;;;;;;0.40;0.40;;;18.30;62.10;;;18.31;45.65;94705.47;5076285;28;20282;-36
2023/03/22 08:50:03;;;;;;;0.52;0.52;;;18.40;62.20;;;18.31;45.70;94706.28;5076145;28;20203;-38
2023/03/22 08:52:39;;;;;;;0.50;0.50;;;18.40;62.20;;;18.32;46.15;94694.63;5076981;28;20214;-37
2023/03/22 08:55:16;;;;;;;0.40;0.40;;;18.40;62.20;;;18.35;46.23;94695.97;5076040;28;20630;-38
2023/03/22 08:58:13;;;;;;;0.60;0.60;;;18.40;62.20;;;18.35;46.14;94695.97;5076443;28;20211;-36
2023/03/22 09:00:50;;;;;;;0.50;0.50;;;18.40;62.20;;;18.37;45.84;94693.88;5093523;28;20213;-35
2023/03/22 09:03:29;;;;;;;0.40;0.40;;;18.50;62.30;;;18.38;45.54;94693.63;5093025;28;20195;-38
2023/03/22 09:05:57;;;;;;;0.40;0.40;;;18.50;62.30;;;18.40;45.57;94698.69;5092616;28;20191;-38
2023/03/22 09:08:33;;;;;;;0.40;0.40;;;18.50;63.20;;;18.42;46.18;94698.44;5076280;28;20194;-37
2023/03/22 09:11:12;;;;;;;0.50;0.50;;;18.50;62.30;;;18.43;46.02;94692.91;5076427;28;20206;-36
2023/03/22 09:13:41;;;;;;;0.43;0.43;;;18.50;62.30;;;18.45;45.58;94690.78;5092736;28;20205;-36
2023/03/22 09:16:09;;;;;;;0.50;0.50;;;18.50;62.30;;;18.45;46.15;94682.81;5075598;28;20195;-39
2023/03/22 09:18:38;;;;;;;0.50;0.50;;;18.50;62.30;;;18.47;45.87;94682.56;5075868;28;20217;-38
2023/03/22 09:21:11;;;;;;;0.40;0.40;;;18.50;62.30;;;18.50;46.09;94682.09;5044327;28;20641;-37
2023/03/22 09:24:01;;;;;;;0.50;0.50;;;18.60;62.30;;;18.49;45.63;94664.53;5075478;28;20225;-39
2023/03/22 09:26:38;;;;;;;0.40;0.40;;;18.60;63.20;;;18.51;45.64;94670.41;5062248;28;20206;-37
2023/03/22 09:29:06;;;;;;;0.38;0.38;;;18.60;62.30;;;18.52;46.05;94672.81;5059066;28;20230;-37
2023/03/22 09:31:33;;;;;;;0.40;0.40;;;18.60;62.30;;;18.56;46.12;94681.09;5058982;28;20229;-35
2023/03/22 09:34:12;;;;;;;0.40;0.40;;;18.60;62.30;;;18.56;46.10;94668.59;5075553;28;20205;-38
2023/03/22 09:36:40;;;;;;;0.40;0.40;;;18.60;62.30;;;18.61;46.15;94661.75;5075378;28;20623;-37
2023/03/22 09:39:09;;;;;;;0.50;0.50;;;18.70;62.30;;;18.61;45.62;94670.53;5091866;28;20588;-38
2023/03/22 09:41:46;;;;;;;0.50;0.50;;;18.70;62.30;;;18.62;45.66;94668.69;5092234;28;20190;-38
2023/03/22 09:44:27;;;;;;;0.40;0.40;;;18.70;62.20;;;18.63;45.65;94660.47;5075360;28;20181;-38
2023/03/22 09:46:58;;;;;;;0.50;0.50;;;18.80;62.20;;;18.65;46.02;94658.38;5075603;28;20252;-38
2023/03/22 09:49:35;;;;;;;0.40;0.40;;;18.80;62.20;;;18.67;45.53;94656.25;5059045;28;20533;-37
2023/03/22 09:52:19;;;;;;;0.50;0.50;;;18.80;62.20;;;18.69;45.67;94656.81;5061997;28;20207;-39
2023/03/22 09:54:46;;;;;;;0.43;0.43;;;18.80;62.10;;;18.70;45.67;94649.63;5076621;28;20267;-38
2023/03/22 09:57:43;;;;;;;0.50;0.50;;;18.80;62.10;;;18.73;45.88;94649.16;5076007;28;20266;-38
2023/03/22 10:00:23;;;;;;;0.40;0.40;;;18.80;62.10;;;18.73;46.00;94652.59;5073964;28;20571;-39
2023/03/22 10:03:27;;;;;;;0.40;0.40;;;18.90;62.10;;;18.74;46.17;94653.41;5075267;28;20180;-37
2023/03/22 10:06:06;;;;;;;0.50;0.50;;;18.90;62.10;;;18.73;45.61;94647.28;5075260;28;20559;-38
2023/03/22 10:09:12;;;;;;;0.50;0.50;;;18.90;62.10;;;18.77;46.03;94644.91;5091887;28;20646;-39
2023/03/22 10:12:17;;;;;;;0.55;0.55;;;18.90;62.10;;;18.77;45.67;94641.47;5075040;28;20246;-39
2023/03/22 10:15:09;;;;;;;0.40;0.40;;;18.90;62.00;;;18.78;45.86;94641.22;5062558;28;20190;-39
2023/03/22 10:17:41;;;;;;;0.40;0.40;;;18.90;62.00;;;18.80;45.99;94643.66;5075051;28;20194;-40
2023/03/22 10:20:35;;;;;;;0.40;0.40;;;19.00;62.10;;;18.83;46.04;94643.13;5075958;28;20599;-39
2023/03/22 10:23:08;;;;;;;0.50;0.50;;;18.90;62.00;;;18.83;45.81;94646.59;5075228;28;20179;-36
2023/03/22 10:25:39;;;;;;;0.50;0.50;;;19.00;62.10;;;18.87;45.56;94647.69;5074684;28;20179;-38
2023/03/22 10:28:28;;;;;;;0.50;0.50;;;19.00;62.00;;;18.88;46.08;94640.53;5074987;28;20180;-38
2023/03/22 10:30:57;;;;;;;0.50;0.50;;;19.00;62.00;;;18.90;45.72;94640.28;5075244;28;20180;-38
2023/03/22 10:33:52;;;;;;;0.55;0.55;;;19.00;62.00;;;18.93;45.83;94642.47;5074986;28;20230;-38
2023/03/22 10:36:25;;;;;;;0.40;0.40;;;19.00;61.90;;;18.93;45.99;94637.16;5058039;28;20281;-39
2023/03/22 10:38:59;;;;;;;0.38;0.38;;;19.10;62.00;;;18.97;45.85;94638.25;5074956;28;20175;-39
2023/03/22 10:41:28;;;;;;;0.50;0.50;;;19.10;61.90;;;18.98;45.75;94623.91;5076122;28;20182;-38
2023/03/22 10:43:59;;;;;;;0.40;0.40;;;19.10;61.90;;;19.02;45.49;94630.34;5057967;28;20191;-38
2023/03/22 10:46:38;;;;;;;0.45;0.45;;;19.10;61.90;;;19.05;45.43;94624.50;5074690;28;20662;-39
2023/03/22 10:49:06;;;;;;;0.50;0.50;;;19.20;61.90;;;19.06;45.54;94620.00;5075702;28;20184;-37
2023/03/22 10:51:47;;;;;;;0.40;0.40;;;19.20;61.90;;;19.10;45.88;94621.09;5058101;28;20220;-39
2023/03/22 10:54:18;;;;;;;0.40;0.40;;;19.20;61.80;;;19.11;45.51;94623.50;5057800;28;20295;-39